sensor_id;sensor_type;location;lat;lon;timestamp;P1;durP1;ratioP1;P2;durP2;ratioP2
10699;SDS011;5401;41.986;21.452;2023-04-12T00:00:49;36.47;;;21.47;;
10699;SDS011;5401;41.986;21.452;2023-04-12T00:03:17;30.77;;;22.30;;
10699;SDS011;5401;41.986;21.452;2023-04-12T00:05:46;31.73;;;22.73;;
10699;SDS011;5401;41.986;21.452;2023-04-12T00:08:19;31.23;;;21.33;;
10699;SDS011;5401;41.986;21.452;2023-04-12T00:10:49;41.37;;;23.53;;
10699;SDS011;5401;41.986;21.452;2023-04-12T00:13:17;37.00;;;22.90;;
10699;SDS011;5401;41.986;21.452;2023-04-12T00:15:46;35.23;;;23.80;;
10699;SDS011;5401;41.986;21.452;2023-04-12T00:18:13;38.03;;;24.70;;
10699;SDS011;5401;41.986;21.452;2023-04-12T00:20:41;34.90;;;24.40;;
10699;SDS011;5401;41.986;21.452;2023-04-12T00:23:09;41.47;;;24.37;;
10699;SDS011;5401;41.986;21.452;2023-04-12T00:25:38;35.30;;;22.93;;
10699;SDS011;5401;41.986;21.452;2023-04-12T00:28:05;35.90;;;24.77;;
10699;SDS011;5401;41.986;21.452;2023-04-12T00:30:32;37.40;;;25.07;;
10699;SDS011;5401;41.986;21.452;2023-04-12T00:33:01;34.07;;;24.23;;
10699;SDS011;5401;41.986;21.452;2023-04-12T00:35:29;38.50;;;25.80;;
10699;SDS011;5401;41.986;21.452;2023-04-12T00:37:57;38.50;;;24.27;;
10699;SDS011;5401;41.986;21.452;2023-04-12T00:40:24;42.60;;;25.70;;
10699;SDS011;5401;41.986;21.452;2023-04-12T00:42:52;33.97;;;23.90;;
10699;SDS011;5401;41.986;21.452;2023-04-12T00:45:20;33.53;;;22.83;;
10699;SDS011;5401;41.986;21.452;2023-04-12T00:47:47;32.63;;;24.03;;
10699;SDS011;5401;41.986;21.452;2023-04-12T00:50:16;33.50;;;21.90;;
10699;SDS011;5401;41.986;21.452;2023-04-12T00:52:45;32.80;;;22.67;;
10699;SDS011;5401;41.986;21.452;2023-04-12T00:55:13;40.50;;;23.63;;
10699;SDS011;5401;41.986;21.452;2023-04-12T00:57:41;38.57;;;22.73;;
10699;SDS011;5401;41.986;21.452;2023-04-12T01:00:09;34.20;;;23.70;;
10699;SDS011;5401;41.986;21.452;2023-04-12T01:02:39;33.67;;;22.50;;
10699;SDS011;5401;41.986;21.452;2023-04-12T01:05:12;32.80;;;23.87;;
10699;SDS011;5401;41.986;21.452;2023-04-12T01:07:50;29.97;;;22.30;;
10699;SDS011;5401;41.986;21.452;2023-04-12T01:10:23;31.10;;;23.27;;
10699;SDS011;5401;41.986;21.452;2023-04-12T01:13:00;38.10;;;25.37;;
10699;SDS011;5401;41.986;21.452;2023-04-12T01:15:38;34.23;;;23.73;;
10699;SDS011;5401;41.986;21.452;2023-04-12T01:18:15;28.10;;;22.53;;
10699;SDS011;5401;41.986;21.452;2023-04-12T01:20:50;35.17;;;23.90;;
10699;SDS011;5401;41.986;21.452;2023-04-12T01:23:42;32.17;;;23.97;;
10699;SDS011;5401;41.986;21.452;2023-04-12T01:26:26;29.43;;;22.80;;
10699;SDS011;5401;41.986;21.452;2023-04-12T01:29:00;39.47;;;24.77;;
10699;SDS011;5401;41.986;21.452;2023-04-12T01:31:30;28.30;;;22.03;;
10699;SDS011;5401;41.986;21.452;2023-04-12T01:34:01;34.77;;;23.83;;
10699;SDS011;5401;41.986;21.452;2023-04-12T01:36:29;26.23;;;19.90;;
10699;SDS011;5401;41.986;21.452;2023-04-12T01:38:58;27.10;;;19.13;;
10699;SDS011;5401;41.986;21.452;2023-04-12T01:41:26;30.13;;;18.67;;
10699;SDS011;5401;41.986;21.452;2023-04-12T01:43:54;25.50;;;19.07;;
10699;SDS011;5401;41.986;21.452;2023-04-12T01:46:23;23.03;;;17.43;;
10699;SDS011;5401;41.986;21.452;2023-04-12T01:48:51;29.13;;;20.37;;
10699;SDS011;5401;41.986;21.452;2023-04-12T01:51:26;27.33;;;21.30;;
10699;SDS011;5401;41.986;21.452;2023-04-12T01:54:05;31.63;;;22.53;;
10699;SDS011;5401;41.986;21.452;2023-04-12T01:56:38;31.90;;;23.07;;
10699;SDS011;5401;41.986;21.452;2023-04-12T01:59:09;26.97;;;22.33;;
10699;SDS011;5401;41.986;21.452;2023-04-12T02:01:42;33.20;;;24.47;;
10699;SDS011;5401;41.986;21.452;2023-04-12T02:04:11;42.87;;;25.57;;
10699;SDS011;5401;41.986;21.452;2023-04-12T02:06:40;35.37;;;24.10;;
10699;SDS011;5401;41.986;21.452;2023-04-12T02:09:08;40.30;;;25.87;;
10699;SDS011;5401;41.986;21.452;2023-04-12T02:11:36;33.37;;;24.87;;
10699;SDS011;5401;41.986;21.452;2023-04-12T02:14:04;41.03;;;27.43;;
10699;SDS011;5401;41.986;21.452;2023-04-12T02:16:33;30.40;;;23.07;;
10699;SDS011;5401;41.986;21.452;2023-04-12T02:19:01;41.93;;;20.50;;
10699;SDS011;5401;41.986;21.452;2023-04-12T02:21:38;39.47;;;20.27;;
10699;SDS011;5401;41.986;21.452;2023-04-12T02:24:07;35.77;;;23.73;;
10699;SDS011;5401;41.986;21.452;2023-04-12T02:26:35;33.67;;;25.03;;
10699;SDS011;5401;41.986;21.452;2023-04-12T02:29:03;32.97;;;23.37;;
10699;SDS011;5401;41.986;21.452;2023-04-12T02:31:32;33.60;;;23.40;;
10699;SDS011;5401;41.986;21.452;2023-04-12T02:34:01;36.20;;;22.53;;
10699;SDS011;5401;41.986;21.452;2023-04-12T02:36:29;33.97;;;24.00;;
10699;SDS011;5401;41.986;21.452;2023-04-12T02:38:57;36.17;;;21.47;;
10699;SDS011;5401;41.986;21.452;2023-04-12T02:41:25;30.97;;;22.90;;
10699;SDS011;5401;41.986;21.452;2023-04-12T02:43:52;27.17;;;20.93;;
10699;SDS011;5401;41.986;21.452;2023-04-12T02:46:21;31.97;;;20.70;;
10699;SDS011;5401;41.986;21.452;2023-04-12T02:48:49;32.73;;;22.50;;
10699;SDS011;5401;41.986;21.452;2023-04-12T02:51:18;25.43;;;18.60;;
10699;SDS011;5401;41.986;21.452;2023-04-12T02:53:46;24.63;;;18.17;;
10699;SDS011;5401;41.986;21.452;2023-04-12T02:56:13;25.47;;;18.50;;
10699;SDS011;5401;41.986;21.452;2023-04-12T02:58:43;26.30;;;18.70;;
10699;SDS011;5401;41.986;21.452;2023-04-12T03:01:11;20.93;;;17.90;;
10699;SDS011;5401;41.986;21.452;2023-04-12T03:03:39;20.27;;;16.53;;
10699;SDS011;5401;41.986;21.452;2023-04-12T03:06:06;20.10;;;16.40;;
10699;SDS011;5401;41.986;21.452;2023-04-12T03:08:36;20.63;;;15.53;;
10699;SDS011;5401;41.986;21.452;2023-04-12T03:11:04;20.73;;;15.27;;
10699;SDS011;5401;41.986;21.452;2023-04-12T03:13:32;21.70;;;15.53;;
10699;SDS011;5401;41.986;21.452;2023-04-12T03:16:19;17.63;;;15.30;;
10699;SDS011;5401;41.986;21.452;2023-04-12T03:18:48;19.33;;;15.13;;
10699;SDS011;5401;41.986;21.452;2023-04-12T03:21:16;18.07;;;15.07;;
10699;SDS011;5401;41.986;21.452;2023-04-12T03:23:45;19.60;;;15.00;;
10699;SDS011;5401;41.986;21.452;2023-04-12T03:26:12;18.93;;;15.97;;
10699;SDS011;5401;41.986;21.452;2023-04-12T03:28:40;22.10;;;14.73;;
10699;SDS011;5401;41.986;21.452;2023-04-12T03:31:07;18.27;;;13.70;;
10699;SDS011;5401;41.986;21.452;2023-04-12T03:33:37;17.37;;;13.07;;
10699;SDS011;5401;41.986;21.452;2023-04-12T03:36:05;17.80;;;13.13;;
10699;SDS011;5401;41.986;21.452;2023-04-12T03:38:35;15.40;;;12.20;;
10699;SDS011;5401;41.986;21.452;2023-04-12T03:41:04;12.80;;;11.37;;
10699;SDS011;5401;41.986;21.452;2023-04-12T03:43:32;14.57;;;11.47;;
10699;SDS011;5401;41.986;21.452;2023-04-12T03:46:00;12.90;;;10.63;;
10699;SDS011;5401;41.986;21.452;2023-04-12T03:48:28;12.07;;;10.47;;
10699;SDS011;5401;41.986;21.452;2023-04-12T03:50:56;13.77;;;10.70;;
10699;SDS011;5401;41.986;21.452;2023-04-12T03:53:24;12.17;;;10.37;;
10699;SDS011;5401;41.986;21.452;2023-04-12T03:55:52;12.83;;;10.83;;
10699;SDS011;5401;41.986;21.452;2023-04-12T03:58:22;14.43;;;10.77;;
10699;SDS011;5401;41.986;21.452;2023-04-12T04:00:50;10.90;;;9.77;;
10699;SDS011;5401;41.986;21.452;2023-04-12T04:03:17;11.27;;;10.07;;
10699;SDS011;5401;41.986;21.452;2023-04-12T04:05:47;12.93;;;11.07;;
10699;SDS011;5401;41.986;21.452;2023-04-12T04:08:15;13.67;;;10.57;;
10699;SDS011;5401;41.986;21.452;2023-04-12T04:10:43;13.73;;;10.73;;
10699;SDS011;5401;41.986;21.452;2023-04-12T04:13:10;17.03;;;10.17;;
10699;SDS011;5401;41.986;21.452;2023-04-12T04:15:39;13.97;;;11.30;;
10699;SDS011;5401;41.986;21.452;2023-04-12T04:18:06;12.83;;;10.27;;
10699;SDS011;5401;41.986;21.452;2023-04-12T04:20:34;12.47;;;10.17;;
10699;SDS011;5401;41.986;21.452;2023-04-12T04:23:01;11.73;;;10.23;;
10699;SDS011;5401;41.986;21.452;2023-04-12T04:25:29;11.03;;;9.47;;
10699;SDS011;5401;41.986;21.452;2023-04-12T04:27:56;11.50;;;9.23;;
10699;SDS011;5401;41.986;21.452;2023-04-12T04:30:24;13.60;;;10.67;;
10699;SDS011;5401;41.986;21.452;2023-04-12T04:32:53;10.67;;;9.57;;
10699;SDS011;5401;41.986;21.452;2023-04-12T04:35:20;11.87;;;9.27;;
10699;SDS011;5401;41.986;21.452;2023-04-12T04:37:48;12.13;;;9.13;;
10699;SDS011;5401;41.986;21.452;2023-04-12T04:40:17;10.70;;;8.93;;
10699;SDS011;5401;41.986;21.452;2023-04-12T04:42:46;13.37;;;9.60;;
10699;SDS011;5401;41.986;21.452;2023-04-12T04:45:19;11.70;;;8.23;;
10699;SDS011;5401;41.986;21.452;2023-04-12T04:47:52;9.40;;;8.07;;
10699;SDS011;5401;41.986;21.452;2023-04-12T04:50:20;10.40;;;7.83;;
10699;SDS011;5401;41.986;21.452;2023-04-12T04:52:48;10.60;;;6.70;;
10699;SDS011;5401;41.986;21.452;2023-04-12T04:55:16;10.27;;;7.00;;
10699;SDS011;5401;41.986;21.452;2023-04-12T04:57:43;11.20;;;6.93;;
10699;SDS011;5401;41.986;21.452;2023-04-12T05:00:11;13.23;;;7.53;;
10699;SDS011;5401;41.986;21.452;2023-04-12T05:02:41;10.00;;;6.93;;
10699;SDS011;5401;41.986;21.452;2023-04-12T05:05:11;10.17;;;6.90;;
10699;SDS011;5401;41.986;21.452;2023-04-12T05:07:40;11.77;;;6.37;;
10699;SDS011;5401;41.986;21.452;2023-04-12T05:10:09;8.03;;;6.57;;
10699;SDS011;5401;41.986;21.452;2023-04-12T05:12:37;13.20;;;7.10;;
10699;SDS011;5401;41.986;21.452;2023-04-12T05:15:44;9.47;;;5.90;;
10699;SDS011;5401;41.986;21.452;2023-04-12T05:18:12;8.33;;;6.13;;
10699;SDS011;5401;41.986;21.452;2023-04-12T05:20:40;9.03;;;6.50;;
10699;SDS011;5401;41.986;21.452;2023-04-12T05:23:07;9.37;;;6.90;;
10699;SDS011;5401;41.986;21.452;2023-04-12T05:25:35;13.00;;;6.43;;
10699;SDS011;5401;41.986;21.452;2023-04-12T05:28:04;13.90;;;6.57;;
10699;SDS011;5401;41.986;21.452;2023-04-12T05:30:40;9.07;;;6.60;;
10699;SDS011;5401;41.986;21.452;2023-04-12T05:33:09;15.93;;;7.07;;
10699;SDS011;5401;41.986;21.452;2023-04-12T05:35:37;18.20;;;7.67;;
10699;SDS011;5401;41.986;21.452;2023-04-12T05:38:04;13.70;;;6.60;;
10699;SDS011;5401;41.986;21.452;2023-04-12T05:40:31;9.13;;;6.37;;
10699;SDS011;5401;41.986;21.452;2023-04-12T05:43:01;8.10;;;5.30;;
10699;SDS011;5401;41.986;21.452;2023-04-12T05:45:28;12.00;;;5.83;;
10699;SDS011;5401;41.986;21.452;2023-04-12T05:47:56;9.57;;;5.80;;
10699;SDS011;5401;41.986;21.452;2023-04-12T05:50:25;16.63;;;7.27;;
10699;SDS011;5401;41.986;21.452;2023-04-12T05:52:53;12.13;;;6.50;;
10699;SDS011;5401;41.986;21.452;2023-04-12T05:55:21;16.43;;;6.97;;
10699;SDS011;5401;41.986;21.452;2023-04-12T05:57:48;16.70;;;7.00;;
10699;SDS011;5401;41.986;21.452;2023-04-12T06:00:16;16.40;;;6.80;;
10699;SDS011;5401;41.986;21.452;2023-04-12T06:02:44;15.20;;;7.87;;
10699;SDS011;5401;41.986;21.452;2023-04-12T06:05:12;24.57;;;8.77;;
10699;SDS011;5401;41.986;21.452;2023-04-12T06:07:43;21.30;;;9.77;;
10699;SDS011;5401;41.986;21.452;2023-04-12T06:10:12;21.67;;;12.20;;
10699;SDS011;5401;41.986;21.452;2023-04-12T06:12:40;19.10;;;6.70;;
10699;SDS011;5401;41.986;21.452;2023-04-12T06:15:08;13.90;;;6.20;;
10699;SDS011;5401;41.986;21.452;2023-04-12T06:17:36;13.50;;;5.90;;
10699;SDS011;5401;41.986;21.452;2023-04-12T06:20:03;11.50;;;5.30;;
10699;SDS011;5401;41.986;21.452;2023-04-12T06:22:34;13.83;;;5.87;;
10699;SDS011;5401;41.986;21.452;2023-04-12T06:25:03;8.20;;;5.43;;
10699;SDS011;5401;41.986;21.452;2023-04-12T06:27:31;8.10;;;5.37;;
10699;SDS011;5401;41.986;21.452;2023-04-12T06:29:58;12.47;;;5.50;;
10699;SDS011;5401;41.986;21.452;2023-04-12T06:32:26;7.10;;;4.23;;
10699;SDS011;5401;41.986;21.452;2023-04-12T06:34:53;9.53;;;4.90;;
10699;SDS011;5401;41.986;21.452;2023-04-12T06:37:20;10.70;;;4.30;;
10699;SDS011;5401;41.986;21.452;2023-04-12T06:39:48;10.23;;;4.73;;
10699;SDS011;5401;41.986;21.452;2023-04-12T06:42:17;7.90;;;4.20;;
10699;SDS011;5401;41.986;21.452;2023-04-12T06:44:45;12.03;;;4.73;;
10699;SDS011;5401;41.986;21.452;2023-04-12T06:47:12;12.20;;;4.80;;
10699;SDS011;5401;41.986;21.452;2023-04-12T06:49:40;8.00;;;5.23;;
10699;SDS011;5401;41.986;21.452;2023-04-12T06:52:08;8.87;;;4.87;;
10699;SDS011;5401;41.986;21.452;2023-04-12T06:54:35;11.37;;;4.80;;
10699;SDS011;5401;41.986;21.452;2023-04-12T06:57:07;6.90;;;4.07;;
10699;SDS011;5401;41.986;21.452;2023-04-12T06:59:37;13.03;;;5.23;;
10699;SDS011;5401;41.986;21.452;2023-04-12T07:02:05;11.87;;;4.17;;
10699;SDS011;5401;41.986;21.452;2023-04-12T07:04:33;11.13;;;4.20;;
10699;SDS011;5401;41.986;21.452;2023-04-12T07:07:01;6.47;;;3.77;;
10699;SDS011;5401;41.986;21.452;2023-04-12T07:09:29;11.20;;;4.27;;
10699;SDS011;5401;41.986;21.452;2023-04-12T07:11:57;7.07;;;3.97;;
10699;SDS011;5401;41.986;21.452;2023-04-12T07:14:24;11.17;;;4.73;;
10699;SDS011;5401;41.986;21.452;2023-04-12T07:16:53;9.10;;;4.40;;
10699;SDS011;5401;41.986;21.452;2023-04-12T07:19:21;11.40;;;4.57;;
10699;SDS011;5401;41.986;21.452;2023-04-12T07:21:48;13.87;;;5.03;;
10699;SDS011;5401;41.986;21.452;2023-04-12T07:24:16;8.77;;;5.00;;
10699;SDS011;5401;41.986;21.452;2023-04-12T07:26:43;8.63;;;4.43;;
10699;SDS011;5401;41.986;21.452;2023-04-12T07:29:11;13.70;;;4.80;;
10699;SDS011;5401;41.986;21.452;2023-04-12T07:31:38;14.77;;;5.10;;
10699;SDS011;5401;41.986;21.452;2023-04-12T07:34:07;16.93;;;5.40;;
10699;SDS011;5401;41.986;21.452;2023-04-12T07:36:35;6.40;;;4.43;;
10699;SDS011;5401;41.986;21.452;2023-04-12T07:39:03;9.90;;;4.80;;
10699;SDS011;5401;41.986;21.452;2023-04-12T07:41:30;12.13;;;5.33;;
10699;SDS011;5401;41.986;21.452;2023-04-12T07:44:00;10.07;;;5.10;;
10699;SDS011;5401;41.986;21.452;2023-04-12T07:46:27;15.17;;;4.57;;
10699;SDS011;5401;41.986;21.452;2023-04-12T07:48:55;19.70;;;5.40;;
10699;SDS011;5401;41.986;21.452;2023-04-12T07:51:24;12.23;;;4.40;;
10699;SDS011;5401;41.986;21.452;2023-04-12T07:53:51;12.50;;;4.67;;
10699;SDS011;5401;41.986;21.452;2023-04-12T07:56:19;15.40;;;5.93;;
10699;SDS011;5401;41.986;21.452;2023-04-12T07:58:46;12.93;;;5.70;;
10699;SDS011;5401;41.986;21.452;2023-04-12T08:01:14;17.43;;;5.53;;
10699;SDS011;5401;41.986;21.452;2023-04-12T08:03:42;15.13;;;5.83;;
10699;SDS011;5401;41.986;21.452;2023-04-12T08:06:10;31.10;;;9.00;;
10699;SDS011;5401;41.986;21.452;2023-04-12T08:08:39;27.97;;;8.20;;
10699;SDS011;5401;41.986;21.452;2023-04-12T08:11:06;11.53;;;5.43;;
10699;SDS011;5401;41.986;21.452;2023-04-12T08:13:34;20.87;;;8.00;;
10699;SDS011;5401;41.986;21.452;2023-04-12T08:16:01;15.57;;;6.37;;
10699;SDS011;5401;41.986;21.452;2023-04-12T08:18:29;11.77;;;4.73;;
10699;SDS011;5401;41.986;21.452;2023-04-12T08:20:57;27.03;;;9.27;;
10699;SDS011;5401;41.986;21.452;2023-04-12T08:23:24;14.13;;;5.40;;
10699;SDS011;5401;41.986;21.452;2023-04-12T08:25:54;9.77;;;5.30;;
10699;SDS011;5401;41.986;21.452;2023-04-12T08:28:27;17.57;;;7.70;;
10699;SDS011;5401;41.986;21.452;2023-04-12T08:30:55;9.97;;;4.70;;
10699;SDS011;5401;41.986;21.452;2023-04-12T08:33:23;5.90;;;2.90;;
10699;SDS011;5401;41.986;21.452;2023-04-12T08:35:51;8.30;;;2.90;;
10699;SDS011;5401;41.986;21.452;2023-04-12T08:38:19;7.67;;;2.80;;
10699;SDS011;5401;41.986;21.452;2023-04-12T08:40:46;2.90;;;2.67;;
10699;SDS011;5401;41.986;21.452;2023-04-12T08:43:15;3.37;;;2.50;;
10699;SDS011;5401;41.986;21.452;2023-04-12T08:45:44;4.90;;;3.30;;
10699;SDS011;5401;41.986;21.452;2023-04-12T08:48:12;3.80;;;2.47;;
10699;SDS011;5401;41.986;21.452;2023-04-12T08:50:41;6.03;;;2.97;;
10699;SDS011;5401;41.986;21.452;2023-04-12T08:53:09;4.30;;;3.50;;
10699;SDS011;5401;41.986;21.452;2023-04-12T08:55:37;6.77;;;3.53;;
10699;SDS011;5401;41.986;21.452;2023-04-12T08:58:05;9.03;;;3.90;;
10699;SDS011;5401;41.986;21.452;2023-04-12T09:00:36;15.17;;;4.97;;
10699;SDS011;5401;41.986;21.452;2023-04-12T09:03:04;4.47;;;3.20;;
10699;SDS011;5401;41.986;21.452;2023-04-12T09:05:32;3.77;;;2.93;;
10699;SDS011;5401;41.986;21.452;2023-04-12T09:08:00;7.93;;;3.53;;
10699;SDS011;5401;41.986;21.452;2023-04-12T09:10:31;3.27;;;2.63;;
10699;SDS011;5401;41.986;21.452;2023-04-12T09:12:59;4.13;;;3.03;;
10699;SDS011;5401;41.986;21.452;2023-04-12T09:15:28;2.97;;;2.67;;
10699;SDS011;5401;41.986;21.452;2023-04-12T09:18:07;7.83;;;3.63;;
10699;SDS011;5401;41.986;21.452;2023-04-12T09:20:38;9.97;;;3.57;;
10699;SDS011;5401;41.986;21.452;2023-04-12T09:23:15;8.53;;;4.70;;
10699;SDS011;5401;41.986;21.452;2023-04-12T09:25:44;9.00;;;4.03;;
10699;SDS011;5401;41.986;21.452;2023-04-12T09:28:19;10.10;;;4.20;;
10699;SDS011;5401;41.986;21.452;2023-04-12T09:30:49;8.73;;;3.37;;
10699;SDS011;5401;41.986;21.452;2023-04-12T09:33:19;8.00;;;3.47;;
10699;SDS011;5401;41.986;21.452;2023-04-12T09:35:47;12.37;;;4.73;;
10699;SDS011;5401;41.986;21.452;2023-04-12T09:38:18;14.53;;;4.20;;
10699;SDS011;5401;41.986;21.452;2023-04-12T09:40:45;8.23;;;3.20;;
10699;SDS011;5401;41.986;21.452;2023-04-12T09:43:14;5.27;;;3.07;;
10699;SDS011;5401;41.986;21.452;2023-04-12T09:45:42;11.13;;;4.07;;
10699;SDS011;5401;41.986;21.452;2023-04-12T09:48:17;3.70;;;3.27;;
10699;SDS011;5401;41.986;21.452;2023-04-12T09:50:46;7.67;;;4.17;;
10699;SDS011;5401;41.986;21.452;2023-04-12T09:53:15;8.67;;;3.63;;
10699;SDS011;5401;41.986;21.452;2023-04-12T09:55:43;4.93;;;3.50;;
10699;SDS011;5401;41.986;21.452;2023-04-12T09:58:12;5.37;;;3.43;;
10699;SDS011;5401;41.986;21.452;2023-04-12T10:00:45;4.63;;;3.80;;
10699;SDS011;5401;41.986;21.452;2023-04-12T10:03:13;8.77;;;3.60;;
10699;SDS011;5401;41.986;21.452;2023-04-12T10:05:42;9.03;;;3.57;;
10699;SDS011;5401;41.986;21.452;2023-04-12T10:08:10;4.37;;;3.03;;
10699;SDS011;5401;41.986;21.452;2023-04-12T10:10:39;10.87;;;3.50;;
10699;SDS011;5401;41.986;21.452;2023-04-12T10:13:10;5.77;;;3.63;;
10699;SDS011;5401;41.986;21.452;2023-04-12T10:15:38;8.33;;;4.83;;
10699;SDS011;5401;41.986;21.452;2023-04-12T10:18:07;8.70;;;4.80;;
10699;SDS011;5401;41.986;21.452;2023-04-12T10:20:38;7.33;;;3.90;;
10699;SDS011;5401;41.986;21.452;2023-04-12T10:23:08;8.83;;;5.03;;
10699;SDS011;5401;41.986;21.452;2023-04-12T10:25:37;6.13;;;3.23;;
10699;SDS011;5401;41.986;21.452;2023-04-12T10:28:16;11.20;;;4.00;;
10699;SDS011;5401;41.986;21.452;2023-04-12T10:30:46;8.90;;;3.70;;
10699;SDS011;5401;41.986;21.452;2023-04-12T10:33:17;4.23;;;3.40;;
10699;SDS011;5401;41.986;21.452;2023-04-12T10:35:53;11.63;;;5.60;;
10699;SDS011;5401;41.986;21.452;2023-04-12T10:38:23;9.80;;;3.53;;
10699;SDS011;5401;41.986;21.452;2023-04-12T10:41:12;9.50;;;3.93;;
10699;SDS011;5401;41.986;21.452;2023-04-12T10:43:41;5.10;;;3.10;;
10699;SDS011;5401;41.986;21.452;2023-04-12T10:49:15;5.13;;;3.67;;
10699;SDS011;5401;41.986;21.452;2023-04-12T10:54:41;21.77;;;5.07;;
10699;SDS011;5401;41.986;21.452;2023-04-12T11:00:08;3.90;;;2.90;;
10699;SDS011;5401;41.986;21.452;2023-04-12T11:08:27;11.00;;;4.20;;
10699;SDS011;5401;41.986;21.452;2023-04-12T11:11:00;6.20;;;3.00;;
10699;SDS011;5401;41.986;21.452;2023-04-12T11:13:31;8.37;;;3.83;;
10699;SDS011;5401;41.986;21.452;2023-04-12T11:16:02;3.27;;;2.73;;
10699;SDS011;5401;41.986;21.452;2023-04-12T11:18:32;4.30;;;3.07;;
10699;SDS011;5401;41.986;21.452;2023-04-12T11:21:01;5.17;;;3.10;;
10699;SDS011;5401;41.986;21.452;2023-04-12T11:23:29;7.37;;;3.00;;
10699;SDS011;5401;41.986;21.452;2023-04-12T11:25:58;9.70;;;3.50;;
10699;SDS011;5401;41.986;21.452;2023-04-12T11:28:27;4.53;;;3.40;;
10699;SDS011;5401;41.986;21.452;2023-04-12T11:30:55;8.83;;;3.40;;
10699;SDS011;5401;41.986;21.452;2023-04-12T11:33:33;4.90;;;3.30;;
10699;SDS011;5401;41.986;21.452;2023-04-12T11:36:03;6.53;;;3.37;;
10699;SDS011;5401;41.986;21.452;2023-04-12T11:38:32;5.83;;;3.67;;
10699;SDS011;5401;41.986;21.452;2023-04-12T11:41:01;13.47;;;3.90;;
10699;SDS011;5401;41.986;21.452;2023-04-12T11:43:30;15.60;;;3.80;;
10699;SDS011;5401;41.986;21.452;2023-04-12T11:45:58;17.50;;;3.77;;
10699;SDS011;5401;41.986;21.452;2023-04-12T11:48:27;7.03;;;3.20;;
10699;SDS011;5401;41.986;21.452;2023-04-12T11:50:55;10.67;;;4.60;;
10699;SDS011;5401;41.986;21.452;2023-04-12T11:53:26;6.97;;;3.47;;
10699;SDS011;5401;41.986;21.452;2023-04-12T11:55:55;6.00;;;3.17;;
10699;SDS011;5401;41.986;21.452;2023-04-12T11:58:26;6.93;;;3.47;;
10699;SDS011;5401;41.986;21.452;2023-04-12T12:00:57;9.13;;;3.90;;
10699;SDS011;5401;41.986;21.452;2023-04-12T12:03:27;5.23;;;3.30;;
10699;SDS011;5401;41.986;21.452;2023-04-12T12:06:00;6.10;;;2.90;;
10699;SDS011;5401;41.986;21.452;2023-04-12T12:08:42;10.70;;;3.57;;
10699;SDS011;5401;41.986;21.452;2023-04-12T12:11:18;4.27;;;3.80;;
10699;SDS011;5401;41.986;21.452;2023-04-12T12:13:56;5.07;;;3.00;;
10699;SDS011;5401;41.986;21.452;2023-04-12T12:16:28;7.13;;;3.50;;
10699;SDS011;5401;41.986;21.452;2023-04-12T12:18:56;6.27;;;3.43;;
10699;SDS011;5401;41.986;21.452;2023-04-12T12:21:24;6.43;;;2.97;;
10699;SDS011;5401;41.986;21.452;2023-04-12T12:23:52;6.87;;;3.10;;
10699;SDS011;5401;41.986;21.452;2023-04-12T12:26:21;3.80;;;3.40;;
10699;SDS011;5401;41.986;21.452;2023-04-12T12:28:50;12.90;;;3.83;;
10699;SDS011;5401;41.986;21.452;2023-04-12T12:31:19;7.47;;;3.13;;
10699;SDS011;5401;41.986;21.452;2023-04-12T12:33:52;6.20;;;3.10;;
10699;SDS011;5401;41.986;21.452;2023-04-12T12:36:27;9.40;;;4.10;;
10699;SDS011;5401;41.986;21.452;2023-04-12T12:39:01;10.40;;;5.50;;
10699;SDS011;5401;41.986;21.452;2023-04-12T12:41:31;11.30;;;3.97;;
10699;SDS011;5401;41.986;21.452;2023-04-12T12:43:59;5.72;;;3.60;;
10699;SDS011;5401;41.986;21.452;2023-04-12T12:46:27;8.13;;;4.27;;
10699;SDS011;5401;41.986;21.452;2023-04-12T12:48:55;5.33;;;3.73;;
10699;SDS011;5401;41.986;21.452;2023-04-12T12:51:23;5.13;;;3.13;;
10699;SDS011;5401;41.986;21.452;2023-04-12T12:53:51;12.93;;;4.73;;
10699;SDS011;5401;41.986;21.452;2023-04-12T12:56:18;5.90;;;4.13;;
10699;SDS011;5401;41.986;21.452;2023-04-12T12:58:46;11.03;;;3.90;;
10699;SDS011;5401;41.986;21.452;2023-04-12T13:01:20;5.77;;;3.63;;
10699;SDS011;5401;41.986;21.452;2023-04-12T13:03:50;7.00;;;3.90;;
10699;SDS011;5401;41.986;21.452;2023-04-12T13:06:19;3.77;;;3.10;;
10699;SDS011;5401;41.986;21.452;2023-04-12T13:08:46;10.10;;;4.20;;
10699;SDS011;5401;41.986;21.452;2023-04-12T13:11:14;8.93;;;4.27;;
10699;SDS011;5401;41.986;21.452;2023-04-12T13:13:41;12.23;;;3.13;;
10699;SDS011;5401;41.986;21.452;2023-04-12T13:16:09;6.67;;;5.50;;
10699;SDS011;5401;41.986;21.452;2023-04-12T13:18:36;4.27;;;3.67;;
10699;SDS011;5401;41.986;21.452;2023-04-12T13:21:04;5.80;;;3.37;;
10699;SDS011;5401;41.986;21.452;2023-04-12T13:23:34;8.40;;;3.20;;
10699;SDS011;5401;41.986;21.452;2023-04-12T13:26:01;10.30;;;5.33;;
10699;SDS011;5401;41.986;21.452;2023-04-12T13:28:29;4.93;;;3.77;;
10699;SDS011;5401;41.986;21.452;2023-04-12T13:30:56;7.43;;;5.17;;
10699;SDS011;5401;41.986;21.452;2023-04-12T13:33:24;5.70;;;4.40;;
10699;SDS011;5401;41.986;21.452;2023-04-12T13:35:51;5.10;;;3.00;;
10699;SDS011;5401;41.986;21.452;2023-04-12T13:38:19;5.93;;;3.47;;
10699;SDS011;5401;41.986;21.452;2023-04-12T13:40:48;7.87;;;3.60;;
10699;SDS011;5401;41.986;21.452;2023-04-12T13:43:15;6.30;;;3.60;;
10699;SDS011;5401;41.986;21.452;2023-04-12T13:45:43;6.33;;;3.03;;
10699;SDS011;5401;41.986;21.452;2023-04-12T13:48:10;6.40;;;2.87;;
10699;SDS011;5401;41.986;21.452;2023-04-12T13:50:38;6.63;;;3.57;;
10699;SDS011;5401;41.986;21.452;2023-04-12T13:53:05;3.80;;;3.50;;
10699;SDS011;5401;41.986;21.452;2023-04-12T13:55:33;3.40;;;3.07;;
10699;SDS011;5401;41.986;21.452;2023-04-12T13:58:02;10.20;;;6.00;;
10699;SDS011;5401;41.986;21.452;2023-04-12T14:00:29;10.17;;;4.27;;
10699;SDS011;5401;41.986;21.452;2023-04-12T14:02:57;7.67;;;4.63;;
10699;SDS011;5401;41.986;21.452;2023-04-12T14:05:24;10.27;;;4.10;;
10699;SDS011;5401;41.986;21.452;2023-04-12T14:07:51;13.40;;;5.93;;
10699;SDS011;5401;41.986;21.452;2023-04-12T14:10:20;6.03;;;4.00;;
10699;SDS011;5401;41.986;21.452;2023-04-12T14:12:47;24.33;;;20.60;;
10699;SDS011;5401;41.986;21.452;2023-04-12T14:15:16;171.57;;;119.53;;
10699;SDS011;5401;41.986;21.452;2023-04-12T14:17:44;72.33;;;56.03;;
10699;SDS011;5401;41.986;21.452;2023-04-12T14:20:14;9.07;;;5.70;;
10699;SDS011;5401;41.986;21.452;2023-04-12T14:22:45;23.83;;;9.00;;
10699;SDS011;5401;41.986;21.452;2023-04-12T14:25:12;15.27;;;6.37;;
10699;SDS011;5401;41.986;21.452;2023-04-12T14:27:40;16.73;;;6.07;;
10699;SDS011;5401;41.986;21.452;2023-04-12T14:30:07;20.87;;;8.30;;
10699;SDS011;5401;41.986;21.452;2023-04-12T14:32:36;9.17;;;4.93;;
10699;SDS011;5401;41.986;21.452;2023-04-12T14:35:04;5.20;;;3.37;;
10699;SDS011;5401;41.986;21.452;2023-04-12T14:37:32;4.57;;;3.63;;
10699;SDS011;5401;41.986;21.452;2023-04-12T14:40:00;6.30;;;3.97;;
10699;SDS011;5401;41.986;21.452;2023-04-12T14:42:30;5.07;;;3.50;;
10699;SDS011;5401;41.986;21.452;2023-04-12T14:44:59;4.33;;;2.83;;
10699;SDS011;5401;41.986;21.452;2023-04-12T14:47:26;6.83;;;4.20;;
10699;SDS011;5401;41.986;21.452;2023-04-12T14:49:55;7.23;;;3.73;;
10699;SDS011;5401;41.986;21.452;2023-04-12T14:52:23;9.03;;;4.90;;
10699;SDS011;5401;41.986;21.452;2023-04-12T14:54:50;10.17;;;5.07;;
10699;SDS011;5401;41.986;21.452;2023-04-12T14:57:18;9.07;;;4.30;;
10699;SDS011;5401;41.986;21.452;2023-04-12T14:59:45;5.87;;;3.67;;
10699;SDS011;5401;41.986;21.452;2023-04-12T15:02:13;7.13;;;3.77;;